createdAt,value
2023-01-17T00:02:08.715Z,16.90
2023-01-17T00:04:54.883Z,16.40
2023-01-17T00:07:42.285Z,13.50
2023-01-17T00:10:15.903Z,13.90
2023-01-17T00:12:48.309Z,13.90
2023-01-17T00:15:16.748Z,14.20
2023-01-17T00:17:43.661Z,14.50
2023-01-17T00:20:32.673Z,14.90
2023-01-17T00:23:18.335Z,14.50
2023-01-17T00:26:03.809Z,14.20
2023-01-17T00:28:39.255Z,14.30
2023-01-17T00:31:07.633Z,14.40
2023-01-17T00:33:34.712Z,14.70
2023-01-17T00:36:02.272Z,13.30
2023-01-17T00:38:31.966Z,14.40
2023-01-17T00:41:07.232Z,13.30
2023-01-17T00:43:52.883Z,13.20
2023-01-17T00:46:39.417Z,12.70
2023-01-17T00:49:25.093Z,13.90
2023-01-17T00:52:10.731Z,13.20
2023-01-17T00:54:56.069Z,12.50
2023-01-17T00:57:41.884Z,12.70
2023-01-17T01:00:28.507Z,11.00
2023-01-17T01:03:13.755Z,12.70
2023-01-17T01:05:59.534Z,13.40
2023-01-17T01:08:48.815Z,12.20
2023-01-17T01:11:38.357Z,13.40
2023-01-17T01:14:25.984Z,13.50
2023-01-17T01:17:11.266Z,12.90
2023-01-17T01:19:56.645Z,13.70
2023-01-17T01:22:42.193Z,13.80
2023-01-17T01:25:30.838Z,14.00
2023-01-17T01:28:31.973Z,13.50
2023-01-17T01:31:21.992Z,14.70
2023-01-17T01:33:50.230Z,14.70
2023-01-17T01:36:17.067Z,14.00
2023-01-17T01:38:44.043Z,13.20
2023-01-17T01:41:10.878Z,13.60
2023-01-17T01:43:47.139Z,13.90
2023-01-17T01:46:39.284Z,14.60
2023-01-17T01:49:21.976Z,14.60
2023-01-17T01:51:59.983Z,16.00
2023-01-17T01:54:56.138Z,14.80
2023-01-17T01:57:26.787Z,15.20
2023-01-17T01:59:59.161Z,16.00
2023-01-17T02:02:28.461Z,15.50
2023-01-17T02:04:55.554Z,18.30
2023-01-17T02:07:31.208Z,17.50
2023-01-17T02:09:58.976Z,17.40
2023-01-17T02:12:26.539Z,17.90
2023-01-17T02:14:55.844Z,19.00
2023-01-17T02:17:45.718Z,20.70
2023-01-17T02:22:56.807Z,19.10
2023-01-17T02:25:46.781Z,19.90
2023-01-17T02:28:39.802Z,20.40
2023-01-17T02:31:34.335Z,18.20
2023-01-17T02:34:18.470Z,19.10
2023-01-17T02:37:04.232Z,18.50
2023-01-17T02:39:39.670Z,19.30
2023-01-17T02:42:18.251Z,18.60
2023-01-17T02:44:45.387Z,19.30
2023-01-17T02:47:23.371Z,19.70
2023-01-17T02:49:53.485Z,18.80
2023-01-17T02:52:52.553Z,19.00
2023-01-17T02:56:16.607Z,19.00
2023-01-17T02:59:04.073Z,18.30
2023-01-17T03:01:49.823Z,18.10
2023-01-17T03:04:37.525Z,18.70
2023-01-17T03:07:11.344Z,17.70
2023-01-17T03:09:40.901Z,17.50
2023-01-17T03:12:10.044Z,17.80
2023-01-17T03:14:36.995Z,18.80
2023-01-17T03:17:09.387Z,19.50
2023-01-17T03:19:36.383Z,18.70
2023-01-17T03:22:03.450Z,18.80
2023-01-17T03:24:30.285Z,18.20
2023-01-17T03:26:57.133Z,17.40
2023-01-17T03:29:23.978Z,18.20
2023-01-17T03:31:50.825Z,17.50
2023-01-17T03:34:17.680Z,17.00
2023-01-17T03:36:44.538Z,16.70
2023-01-17T03:39:11.904Z,18.60
2023-01-17T03:41:38.833Z,16.00
2023-01-17T03:44:05.989Z,16.90
2023-01-17T03:46:33.152Z,16.10
2023-01-17T03:48:59.992Z,15.30
2023-01-17T03:51:27.421Z,16.80
2023-01-17T03:53:54.403Z,15.00
2023-01-17T03:56:21.362Z,15.50
2023-01-17T03:58:48.239Z,14.80
2023-01-17T04:01:15.137Z,14.00
2023-01-17T04:03:42.108Z,14.90
2023-01-17T04:06:14.681Z,14.40
2023-01-17T04:08:42.044Z,14.60
2023-01-17T04:11:08.894Z,13.90
2023-01-17T04:13:35.845Z,14.20
2023-01-17T04:16:03.003Z,13.30
2023-01-17T04:18:29.947Z,12.50
2023-01-17T04:20:56.901Z,11.80
2023-01-17T04:23:23.724Z,13.20
2023-01-17T04:25:50.613Z,12.70
2023-01-17T04:28:17.550Z,12.30
2023-01-17T04:30:44.430Z,12.40
2023-01-17T04:33:11.253Z,12.20
2023-01-17T04:35:38.190Z,12.20
2023-01-17T04:38:04.999Z,11.40
2023-01-17T04:40:31.856Z,11.90
2023-01-17T04:42:59.665Z,11.90
2023-01-17T04:45:26.727Z,11.30
2023-01-17T04:47:53.670Z,10.90
2023-01-17T04:50:20.612Z,10.90
2023-01-17T04:52:47.371Z,12.00
2023-01-17T04:55:14.419Z,10.80
2023-01-17T04:57:41.368Z,10.80
2023-01-17T05:00:09.156Z,10.50
2023-01-17T05:02:36.030Z,10.60
2023-01-17T05:05:02.866Z,10.50
2023-01-17T05:07:29.882Z,10.20
2023-01-17T05:09:56.834Z,10.10
2023-01-17T05:12:23.694Z,10.40
2023-01-17T05:14:50.514Z,10.10
2023-01-17T05:17:17.379Z,10.70
2023-01-17T05:19:44.226Z,10.20
2023-01-17T05:22:15.639Z,10.20
2023-01-17T05:24:44.468Z,11.30
2023-01-17T05:27:12.852Z,11.00
2023-01-17T05:29:39.905Z,10.50
2023-01-17T05:32:07.218Z,11.40
2023-01-17T05:34:35.274Z,10.90
2023-01-17T05:37:02.230Z,10.90
2023-01-17T05:39:31.250Z,10.70
2023-01-17T05:41:59.435Z,10.20
2023-01-17T05:44:28.961Z,10.80
2023-01-17T05:46:56.400Z,11.50
2023-01-17T05:49:23.501Z,11.10
2023-01-17T05:51:51.198Z,10.90
2023-01-17T05:54:19.031Z,10.20
2023-01-17T05:56:45.979Z,12.20
2023-01-17T05:59:14.251Z,11.30
2023-01-17T06:01:41.415Z,11.40
2023-01-17T06:04:08.497Z,12.10
2023-01-17T06:06:35.426Z,10.60
2023-01-17T06:09:02.478Z,10.70
2023-01-17T06:11:29.320Z,13.00
2023-01-17T06:13:56.173Z,11.00
2023-01-17T06:16:23.283Z,10.70
2023-01-17T06:18:50.277Z,11.30
2023-01-17T06:21:17.184Z,11.60
2023-01-17T06:23:44.084Z,11.40
2023-01-17T06:26:11.434Z,12.00
2023-01-17T06:28:38.285Z,13.10
2023-01-17T06:31:09.354Z,11.80
2023-01-17T06:33:37.170Z,11.30
2023-01-17T06:36:04.669Z,12.20
2023-01-17T06:38:31.615Z,12.20
2023-01-17T06:41:00.665Z,13.20
2023-01-17T06:43:32.795Z,11.50
2023-01-17T06:46:01.088Z,12.10
2023-01-17T06:48:28.236Z,12.10
2023-01-17T06:50:57.220Z,12.30
2023-01-17T06:53:24.264Z,12.60
2023-01-17T06:55:52.754Z,12.00
2023-01-17T06:58:19.709Z,11.60
2023-01-17T07:00:47.150Z,11.70
2023-01-17T07:03:26.507Z,12.80
2023-01-17T07:05:53.680Z,12.40
2023-01-17T07:08:20.905Z,12.40
2023-01-17T07:10:48.969Z,11.70
2023-01-17T07:13:16.155Z,12.50
2023-01-17T07:15:43.147Z,11.70
2023-01-17T07:18:10.051Z,12.60
2023-01-17T07:20:38.567Z,11.20
2023-01-17T07:23:06.891Z,12.20
2023-01-17T07:25:33.759Z,12.80
2023-01-17T07:28:00.723Z,12.20
2023-01-17T07:30:30.014Z,10.70
2023-01-17T07:32:57.276Z,10.70
2023-01-17T07:35:27.022Z,10.30
2023-01-17T07:37:55.072Z,9.80
2023-01-17T07:40:22.843Z,10.00
2023-01-17T07:42:50.102Z,11.00
2023-01-17T07:45:17.860Z,11.00
2023-01-17T07:47:45.197Z,10.20
2023-01-17T07:50:13.846Z,9.80
2023-01-17T07:52:40.979Z,9.70
2023-01-17T07:55:09.158Z,9.50
2023-01-17T07:57:36.301Z,9.60
2023-01-17T08:00:04.697Z,9.10
2023-01-17T08:02:39.097Z,10.10
2023-01-17T08:05:06.458Z,9.60
2023-01-17T08:07:33.414Z,9.50
2023-01-17T08:10:01.529Z,9.90
2023-01-17T08:12:29.696Z,9.50
2023-01-17T08:14:56.829Z,9.50
2023-01-17T08:17:23.894Z,8.70
2023-01-17T08:19:52.371Z,9.60
2023-01-17T08:22:19.334Z,9.40
2023-01-17T08:24:46.172Z,9.40
2023-01-17T08:27:13.113Z,8.20
2023-01-17T08:29:43.129Z,8.60
2023-01-17T08:34:36.736Z,7.80
2023-01-17T08:37:03.676Z,7.10
2023-01-17T08:39:30.632Z,7.50
2023-01-17T08:41:57.794Z,7.20
2023-01-17T08:44:25.262Z,7.30
2023-01-17T08:46:52.195Z,7.80
2023-01-17T08:49:19.353Z,8.10
2023-01-17T08:51:46.401Z,8.40
2023-01-17T08:54:15.502Z,7.60
2023-01-17T08:56:47.155Z,7.50
2023-01-17T08:59:14.214Z,8.20
2023-01-17T09:01:42.200Z,7.80
2023-01-17T09:04:10.124Z,8.50
2023-01-17T09:06:39.475Z,8.00
2023-01-17T09:09:07.551Z,8.10
2023-01-17T09:11:35.103Z,8.90
2023-01-17T09:14:02.158Z,9.00
2023-01-17T09:16:29.752Z,8.50
2023-01-17T09:18:58.633Z,8.40
2023-01-17T09:21:27.102Z,7.90
2023-01-17T09:23:55.309Z,8.00
2023-01-17T09:26:29.264Z,7.60
2023-01-17T09:28:56.668Z,8.30
2023-01-17T09:31:24.014Z,8.40
2023-01-17T09:33:52.108Z,8.50
2023-01-17T09:36:19.177Z,8.40
2023-01-17T09:38:47.139Z,9.50
2023-01-17T09:41:27.933Z,8.60
2023-01-17T09:44:28.302Z,8.60
2023-01-17T09:47:07.780Z,8.10
2023-01-17T09:49:43.993Z,9.10
2023-01-17T09:52:17.809Z,9.20
2023-01-17T09:54:48.205Z,9.70
2023-01-17T09:57:27.155Z,9.40
2023-01-17T10:00:03.173Z,8.50
2023-01-17T10:02:55.657Z,9.30
2023-01-17T10:05:25.576Z,9.60
2023-01-17T10:08:16.772Z,8.50
2023-01-17T10:11:10.026Z,8.60
2023-01-17T10:14:03.169Z,9.10
2023-01-17T10:16:49.998Z,8.60
2023-01-17T10:19:46.395Z,8.90
2023-01-17T10:22:35.151Z,9.60
2023-01-17T10:25:20.518Z,8.40
2023-01-17T10:27:59.439Z,9.20
2023-01-17T10:30:34.159Z,8.70
2023-01-17T10:33:16.666Z,9.70
2023-01-17T10:35:55.590Z,8.80
2023-01-17T10:38:28.989Z,9.00
2023-01-17T10:41:01.058Z,9.20
2023-01-17T10:43:36.810Z,9.50
2023-01-17T10:46:03.801Z,8.60
2023-01-17T10:48:44.129Z,12.10
2023-01-17T10:51:29.385Z,8.80
2023-01-17T10:54:21.505Z,9.40
2023-01-17T10:56:48.893Z,9.00
2023-01-17T10:59:27.898Z,8.70
2023-01-17T11:01:55.001Z,8.80
2023-01-17T11:04:26.500Z,8.50
2023-01-17T11:07:21.577Z,9.30
2023-01-17T11:09:51.532Z,9.10
2023-01-17T11:15:10.176Z,9.20
2023-01-17T11:18:15.056Z,9.80
2023-01-17T11:20:46.262Z,9.10
2023-01-17T11:23:21.297Z,9.70
2023-01-17T11:26:10.744Z,8.70
2023-01-17T11:28:40.601Z,8.70
2023-01-17T11:31:30.843Z,9.10
2023-01-17T11:34:32.381Z,8.80
2023-01-17T11:37:17.039Z,8.00
2023-01-17T11:39:44.827Z,8.30
2023-01-17T11:42:32.118Z,8.90
2023-01-17T11:45:26.299Z,9.10
2023-01-17T11:48:08.385Z,11.40
2023-01-17T11:50:41.582Z,9.50
2023-01-17T11:53:31.048Z,9.50
2023-01-17T11:56:06.087Z,9.50
2023-01-17T11:58:36.046Z,8.20
2023-01-17T12:04:01.121Z,8.90
2023-01-17T12:06:57.916Z,9.40
2023-01-17T12:09:48.447Z,8.90
2023-01-17T12:13:13.513Z,9.20
2023-01-17T12:16:33.255Z,9.00
2023-01-17T12:19:32.651Z,9.60
2023-01-17T12:22:29.374Z,9.20
2023-01-17T12:25:17.620Z,9.30
2023-01-17T12:28:22.139Z,10.00
2023-01-17T12:31:01.289Z,8.80
2023-01-17T12:33:37.490Z,9.10
2023-01-17T12:36:34.312Z,9.50
2023-01-17T12:39:08.354Z,8.80
2023-01-17T12:41:56.690Z,9.20
2023-01-17T12:44:34.593Z,9.20
2023-01-17T12:47:04.867Z,9.80
2023-01-17T12:49:49.688Z,10.40
2023-01-17T12:52:28.924Z,9.10
2023-01-17T12:55:02.531Z,9.20
2023-01-17T12:57:38.144Z,9.00
2023-01-17T13:00:13.789Z,8.30
2023-01-17T13:02:59.281Z,9.60
2023-01-17T13:05:42.208Z,9.50
2023-01-17T13:08:18.364Z,9.10
2023-01-17T13:10:59.440Z,10.00
2023-01-17T13:13:28.333Z,8.60
2023-01-17T13:16:05.366Z,9.40
2023-01-17T13:18:33.589Z,8.80
2023-01-17T13:21:08.834Z,10.10
2023-01-17T13:23:35.783Z,9.10
2023-01-17T13:26:06.929Z,9.10
2023-01-17T13:29:03.353Z,9.00
2023-01-17T13:31:52.061Z,9.30
2023-01-17T13:34:28.252Z,8.60
2023-01-17T13:37:21.195Z,8.10
2023-01-17T13:40:19.676Z,8.80
2023-01-17T13:42:57.978Z,8.40
2023-01-17T13:45:29.062Z,8.50
2023-01-17T13:48:13.065Z,8.60
2023-01-17T13:50:55.795Z,8.30
2023-01-17T13:53:34.796Z,9.00
2023-01-17T13:56:21.602Z,9.60
2023-01-17T13:58:50.657Z,9.50
2023-01-17T14:01:23.990Z,8.90
2023-01-17T14:03:53.563Z,8.80
2023-01-17T14:06:38.779Z,9.40
2023-01-17T14:09:08.786Z,10.00
2023-01-17T14:14:35.855Z,10.30
2023-01-17T14:17:15.702Z,10.20
2023-01-17T14:19:46.737Z,9.70
2023-01-17T14:22:30.160Z,11.20
2023-01-17T14:25:19.752Z,12.60
2023-01-17T14:27:57.520Z,12.50
2023-01-17T14:30:33.590Z,11.90
2023-01-17T14:33:04.947Z,9.90
2023-01-17T14:35:34.636Z,10.30
2023-01-17T14:38:03.304Z,11.50
2023-01-17T14:40:32.905Z,12.60
2023-01-17T14:43:02.068Z,12.00
2023-01-17T14:45:35.372Z,12.20
2023-01-17T14:48:07.681Z,11.50
2023-01-17T14:50:44.091Z,12.30
2023-01-17T14:53:14.112Z,12.70
2023-01-17T14:58:32.685Z,12.40
2023-01-17T15:01:14.923Z,13.70
2023-01-17T15:03:54.236Z,13.50
2023-01-17T15:06:25.047Z,12.70
2023-01-17T15:08:55.284Z,14.20
2023-01-17T15:11:28.048Z,27.00
2023-01-17T15:14:02.373Z,181.70
2023-01-17T15:16:38.287Z,103.80
2023-01-17T15:19:15.544Z,47.20
2023-01-17T15:21:44.277Z,43.30
2023-01-17T15:24:27.834Z,40.10
2023-01-17T15:26:55.132Z,44.70
2023-01-17T15:29:31.989Z,32.60
2023-01-17T15:32:01.785Z,27.50
2023-01-17T15:34:39.274Z,28.20
2023-01-17T15:37:21.796Z,29.30
2023-01-17T15:39:49.173Z,30.30
2023-01-17T15:42:26.441Z,34.10
2023-01-17T15:45:01.073Z,35.40
2023-01-17T15:47:46.806Z,34.20
2023-01-17T15:50:19.941Z,46.70
2023-01-17T15:52:52.001Z,61.00
2023-01-17T15:55:29.592Z,53.90
2023-01-17T15:57:57.030Z,45.20
2023-01-17T16:00:45.614Z,44.60
2023-01-17T16:03:32.003Z,63.50
2023-01-17T16:06:01.086Z,57.40
2023-01-17T16:08:38.882Z,64.70
2023-01-17T16:11:08.095Z,223.60
2023-01-17T16:13:38.876Z,128.90
2023-01-17T16:16:11.004Z,75.10
2023-01-17T16:18:38.506Z,64.10
2023-01-17T16:21:27.318Z,55.40
2023-01-17T16:23:55.074Z,53.20
2023-01-17T16:26:22.330Z,56.20
2023-01-17T16:28:49.705Z,54.60
2023-01-17T16:31:18.017Z,56.10
2023-01-17T16:33:46.195Z,74.80
2023-01-17T16:36:16.682Z,58.90
2023-01-17T16:38:45.600Z,44.20
2023-01-17T16:41:13.029Z,52.90
2023-01-17T16:43:40.097Z,39.50
2023-01-17T16:46:07.809Z,40.40
2023-01-17T16:48:37.947Z,36.90
2023-01-17T16:51:06.921Z,38.70
2023-01-17T16:53:35.912Z,39.00
2023-01-17T16:56:13.748Z,41.20
2023-01-17T16:58:41.464Z,42.60
2023-01-17T17:01:17.525Z,46.10
2023-01-17T17:03:45.488Z,44.80
2023-01-17T17:06:13.351Z,46.70
2023-01-17T17:08:40.399Z,40.70
2023-01-17T17:11:16.575Z,40.60
2023-01-17T17:13:45.774Z,44.40
2023-01-17T17:16:26.747Z,50.30
2023-01-17T17:18:57.079Z,54.50
2023-01-17T17:21:24.648Z,55.90
2023-01-17T17:23:59.569Z,55.30
2023-01-17T17:26:31.218Z,50.30
2023-01-17T17:28:58.469Z,52.40
2023-01-17T17:31:25.468Z,51.30
2023-01-17T17:33:53.193Z,59.30
2023-01-17T17:36:20.155Z,60.20
2023-01-17T17:38:53.759Z,64.30
2023-01-17T17:41:23.845Z,62.70
2023-01-17T17:43:52.472Z,60.40
2023-01-17T17:46:21.976Z,56.40
2023-01-17T17:48:50.147Z,52.30
2023-01-17T17:51:26.168Z,49.10
2023-01-17T17:54:00.984Z,45.70
2023-01-17T17:56:30.654Z,46.70
2023-01-17T17:58:58.819Z,43.70
2023-01-17T18:01:26.466Z,46.10
2023-01-17T18:03:57.038Z,45.60
2023-01-17T18:06:24.179Z,43.00
2023-01-17T18:08:52.383Z,41.50
2023-01-17T18:11:26.237Z,40.60
2023-01-17T18:13:55.372Z,62.40
2023-01-17T18:16:28.492Z,77.00
2023-01-17T18:18:57.700Z,63.00
2023-01-17T18:21:27.719Z,62.90
2023-01-17T18:24:00.481Z,133.30
2023-01-17T18:26:33.446Z,154.60
2023-01-17T18:29:02.305Z,124.10
2023-01-17T18:31:32.121Z,98.90
2023-01-17T18:36:30.372Z,153.90
2023-01-17T18:38:57.839Z,111.90
2023-01-17T18:41:27.802Z,105.00
2023-01-17T18:43:58.287Z,66.20
2023-01-17T18:46:26.692Z,58.20
2023-01-17T18:48:57.331Z,61.10
2023-01-17T18:51:24.654Z,63.10
2023-01-17T18:53:53.251Z,91.20
2023-01-17T18:56:22.141Z,79.50
2023-01-17T18:58:50.661Z,68.80
2023-01-17T19:01:22.871Z,54.20
2023-01-17T19:03:52.810Z,55.90
2023-01-17T19:06:23.396Z,54.50
2023-01-17T19:08:52.073Z,57.00
2023-01-17T19:11:21.105Z,52.30
2023-01-17T19:13:48.995Z,53.50
2023-01-17T19:16:24.511Z,52.00
2023-01-17T19:18:52.952Z,51.30
2023-01-17T19:21:22.739Z,68.00
2023-01-17T19:26:20.082Z,70.40
2023-01-17T19:28:49.088Z,97.10
2023-01-17T19:31:20.672Z,95.70
2023-01-17T19:33:49.329Z,97.60
2023-01-17T19:36:22.052Z,96.30
2023-01-17T19:39:03.407Z,79.60
2023-01-17T19:41:31.433Z,74.10
2023-01-17T19:44:00.510Z,71.50
2023-01-17T19:46:28.106Z,68.60
2023-01-17T19:48:56.460Z,78.30
2023-01-17T19:51:24.416Z,86.90
2023-01-17T19:53:51.785Z,86.70
2023-01-17T19:56:21.395Z,80.40
2023-01-17T19:58:48.965Z,79.00
2023-01-17T20:01:17.691Z,74.90
2023-01-17T20:03:46.251Z,69.40
2023-01-17T20:06:16.175Z,66.80
2023-01-17T20:08:43.977Z,65.50
2023-01-17T20:11:15.114Z,62.70
2023-01-17T20:13:42.443Z,67.20
2023-01-17T20:16:12.413Z,66.50
2023-01-17T20:18:39.915Z,70.80
2023-01-17T20:21:20.174Z,63.10
2023-01-17T20:23:48.669Z,61.00
2023-01-17T20:26:19.005Z,60.80
2023-01-17T20:28:47.900Z,60.30
2023-01-17T20:31:17.592Z,59.60
2023-01-17T20:33:47.231Z,58.30
2023-01-17T20:36:16.664Z,57.50
2023-01-17T20:38:44.866Z,59.60
2023-01-17T20:41:16.926Z,60.20
2023-01-17T20:43:46.118Z,54.80
2023-01-17T20:46:14.193Z,51.60
2023-01-17T20:48:55.520Z,52.80
2023-01-17T20:51:25.665Z,53.10
2023-01-17T20:53:56.251Z,52.50
2023-01-17T20:56:24.550Z,51.90
2023-01-17T20:58:52.938Z,59.10
2023-01-17T21:01:22.008Z,64.00
2023-01-17T21:03:51.734Z,66.80
2023-01-17T21:06:20.861Z,66.00
2023-01-17T21:08:49.238Z,59.40
2023-01-17T21:11:19.988Z,55.00
2023-01-17T21:13:48.959Z,52.10
2023-01-17T21:16:17.990Z,53.90
2023-01-17T21:18:52.001Z,53.20
2023-01-17T21:21:25.465Z,55.40
2023-01-17T21:23:54.982Z,60.10
2023-01-17T21:26:28.151Z,57.10
2023-01-17T21:28:55.872Z,110.90
2023-01-17T21:31:26.620Z,68.40
2023-01-17T21:33:59.380Z,58.00
2023-01-17T21:36:29.083Z,54.00
2023-01-17T21:38:58.192Z,50.80
2023-01-17T21:41:28.838Z,48.80
2023-01-17T21:43:58.011Z,49.80
2023-01-17T21:46:26.636Z,47.90
2023-01-17T21:48:54.484Z,55.80
2023-01-17T21:51:22.246Z,50.70
2023-01-17T21:53:49.501Z,54.10
2023-01-17T21:56:35.901Z,59.40
2023-01-17T21:59:03.158Z,58.00
2023-01-17T22:01:33.439Z,49.80
2023-01-17T22:04:03.221Z,49.20
2023-01-17T22:06:34.766Z,53.10
2023-01-17T22:09:04.259Z,50.80
2023-01-17T22:11:32.096Z,48.20
2023-01-17T22:13:59.495Z,48.30
2023-01-17T22:16:26.744Z,48.30
2023-01-17T22:18:54.837Z,47.30
2023-01-17T22:21:28.438Z,45.80
2023-01-17T22:23:57.940Z,47.70
2023-01-17T22:26:27.710Z,46.20
2023-01-17T22:31:25.738Z,54.90
2023-01-17T22:34:01.035Z,52.50
2023-01-17T22:36:29.839Z,55.00
2023-01-17T22:38:57.145Z,50.10
2023-01-17T22:41:29.876Z,50.20
2023-01-17T22:43:59.032Z,52.90
2023-01-17T22:46:30.429Z,52.50
2023-01-17T22:48:58.139Z,54.70
2023-01-17T22:51:27.345Z,52.30
2023-01-17T22:53:56.825Z,48.30
2023-01-17T22:56:29.529Z,49.30
2023-01-17T22:58:57.821Z,51.70
2023-01-17T23:01:27.737Z,53.90
2023-01-17T23:06:27.469Z,55.50
2023-01-17T23:08:56.971Z,55.10
2023-01-17T23:11:47.570Z,54.40
2023-01-17T23:14:25.567Z,55.40
2023-01-17T23:17:14.929Z,51.50
2023-01-17T23:19:49.763Z,51.40
2023-01-17T23:22:30.106Z,49.50
2023-01-17T23:24:59.516Z,49.80
2023-01-17T23:27:46.938Z,48.10
2023-01-17T23:30:26.168Z,48.80
2023-01-17T23:32:55.394Z,46.00
2023-01-17T23:35:25.841Z,47.30
2023-01-17T23:38:11.582Z,46.60
2023-01-17T23:40:39.589Z,45.30
2023-01-17T23:43:25.356Z,43.10
2023-01-17T23:45:54.124Z,48.80
2023-01-17T23:48:24.011Z,47.20
2023-01-17T23:50:51.299Z,46.90
2023-01-17T23:53:23.196Z,46.90
2023-01-17T23:55:52.462Z,44.70
2023-01-17T23:58:21.877Z,45.00
